Time;durP1;ratioP1;P1;durP2;ratioP2;P2;SDS_P1;SDS_P2;PMS_P1;PMS_P2;Temp;Humidity;BMP_temperature;BMP_pressure;BME280_temperature;BME280_humidity;BME280_pressure;Samples;Min_cycle;Max_cycle;Signal;HPM_P1;HPM_P2
2022/06/13 00:01:43;;;;;;;24.17;8.40;;;;;;;;;;5031213;28;20517;-74
2022/06/13 00:04:10;;;;;;;28.13;10.67;;;;;;;;;;5031950;28;20480;-74
2022/06/13 00:06:38;;;;;;;22.83;9.17;;;;;;;;;;5031835;28;20441;-74
2022/06/13 00:09:07;;;;;;;23.53;8.90;;;;;;;;;;5031674;28;20440;-74
2022/06/13 00:11:35;;;;;;;25.07;9.60;;;;;;;;;;5031703;28;20475;-74
2022/06/13 00:14:03;;;;;;;23.60;9.07;;;;;;;;;;5031608;28;20437;-74
2022/06/13 00:16:31;;;;;;;18.63;7.53;;;;;;;;;;5031548;28;20444;-74
2022/06/13 00:18:58;;;;;;;19.77;8.10;;;;;;;;;;5031707;28;20968;-74
2022/06/13 00:21:27;;;;;;;20.00;8.47;;;;;;;;;;5031546;28;20455;-74
2022/06/13 00:23:54;;;;;;;27.93;10.20;;;;;;;;;;5031241;28;20492;-74
2022/06/13 00:26:27;;;;;;;24.87;8.53;;;;;;;;;;5031540;28;20441;-74
2022/06/13 00:28:55;;;;;;;20.17;8.67;;;;;;;;;;5031501;28;20444;-74
2022/06/13 00:31:23;;;;;;;22.87;9.20;;;;;;;;;;5031505;28;20441;-74
2022/06/13 00:33:51;;;;;;;20.20;8.00;;;;;;;;;;5031410;28;20445;-74
2022/06/13 00:36:21;;;;;;;21.17;8.43;;;;;;;;;;5031508;28;20443;-74
2022/06/13 00:38:49;;;;;;;19.40;8.23;;;;;;;;;;5031454;28;20437;-74
2022/06/13 00:41:19;;;;;;;20.10;8.60;;;;;;;;;;5031728;28;20491;-74
2022/06/13 00:43:48;;;;;;;31.53;10.40;;;;;;;;;;5031039;28;20511;-75
2022/06/13 00:46:17;;;;;;;21.20;9.03;;;;;;;;;;5031292;28;20441;-74
2022/06/13 00:48:45;;;;;;;23.40;9.03;;;;;;;;;;5031354;28;20958;-74
2022/06/13 00:51:14;;;;;;;22.73;9.33;;;;;;;;;;5031350;28;20437;-75
2022/06/13 00:53:42;;;;;;;27.10;12.00;;;;;;;;;;5031231;28;20464;-74
2022/06/13 00:56:12;;;;;;;31.37;9.57;;;;;;;;;;5031451;28;20440;-74
2022/06/13 00:58:41;;;;;;;29.70;10.33;;;;;;;;;;5031190;28;20436;-74
2022/06/13 01:01:11;;;;;;;25.80;10.30;;;;;;;;;;5030820;28;20855;-74
2022/06/13 01:03:38;;;;;;;27.23;10.03;;;;;;;;;;5031209;28;20601;-74
2022/06/13 01:06:07;;;;;;;20.97;8.93;;;;;;;;;;5031261;28;20441;-74
2022/06/13 01:08:36;;;;;;;25.87;10.00;;;;;;;;;;5033992;28;20448;-75
2022/06/13 01:11:17;;;;;;;23.27;8.83;;;;;;;;;;5034534;28;20661;-74
2022/06/13 01:14:08;;;;;;;35.33;10.17;;;;;;;;;;5034598;28;20456;-74
2022/06/13 01:16:45;;;;;;;23.17;8.50;;;;;;;;;;5034772;28;20449;-74
2022/06/13 01:19:33;;;;;;;23.20;9.03;;;;;;;;;;5034753;28;20448;-74
2022/06/13 01:22:10;;;;;;;17.23;7.40;;;;;;;;;;5009787;28;20448;-75
2022/06/13 01:24:54;;;;;;;21.10;7.83;;;;;;;;;;5034581;28;20863;-74
2022/06/13 01:27:31;;;;;;;19.17;8.20;;;;;;;;;;5034533;28;20443;-74
2022/06/13 01:30:00;;;;;;;19.90;7.50;;;;;;;;;;5034461;28;21049;-74
2022/06/13 01:32:35;;;;;;;21.57;8.00;;;;;;;;;;5034482;28;20464;-74
2022/06/13 01:35:12;;;;;;;22.10;8.60;;;;;;;;;;5034330;28;20444;-74
2022/06/13 01:37:47;;;;;;;19.90;8.13;;;;;;;;;;5034044;28;20529;-74
2022/06/13 01:40:20;;;;;;;22.83;8.80;;;;;;;;;;5034450;28;20450;-74
2022/06/13 01:43:01;;;;;;;22.60;8.17;;;;;;;;;;5034179;28;20452;-74
2022/06/13 01:45:33;;;;;;;25.93;8.03;;;;;;;;;;5034201;28;20491;-74
2022/06/13 01:48:03;;;;;;;19.90;8.33;;;;;;;;;;5034154;28;20437;-74
2022/06/13 01:50:32;;;;;;;22.53;8.60;;;;;;;;;;5034113;28;20440;-74
2022/06/13 01:53:03;;;;;;;18.33;8.33;;;;;;;;;;5034349;28;20441;-74
2022/06/13 01:55:36;;;;;;;24.77;9.13;;;;;;;;;;5034419;28;20448;-74
2022/06/13 01:58:07;;;;;;;24.73;9.23;;;;;;;;;;5033971;28;20464;-74
2022/06/13 02:00:36;;;;;;;20.93;8.30;;;;;;;;;;5033569;28;20540;-74
2022/06/13 02:03:12;;;;;;;21.57;9.00;;;;;;;;;;5034079;28;20437;-74
2022/06/13 02:05:41;;;;;;;22.10;8.87;;;;;;;;;;5033570;28;20483;-74
2022/06/13 02:08:10;;;;;;;21.33;9.50;;;;;;;;;;5033928;28;20447;-75
2022/06/13 02:10:41;;;;;;;22.40;8.57;;;;;;;;;;5033774;28;20480;-74
2022/06/13 02:13:10;;;;;;;20.30;8.80;;;;;;;;;;5033587;28;20953;-74
2022/06/13 02:15:40;;;;;;;29.07;10.47;;;;;;;;;;5033351;28;20528;-74
2022/06/13 02:18:12;;;;;;;22.50;8.50;;;;;;;;;;5033471;28;20451;-74
2022/06/13 02:20:41;;;;;;;22.03;8.93;;;;;;;;;;5033557;28;20441;-74
2022/06/13 02:23:12;;;;;;;20.30;8.57;;;;;;;;;;5033391;28;20439;-74
2022/06/13 02:25:43;;;;;;;24.20;10.70;;;;;;;;;;5033342;28;20477;-75
2022/06/13 02:28:13;;;;;;;27.40;9.50;;;;;;;;;;5033372;28;21057;-74
2022/06/13 02:30:42;;;;;;;25.97;10.00;;;;;;;;;;5033264;28;20950;-74
2022/06/13 02:33:11;;;;;;;20.87;8.53;;;;;;;;;;5033257;28;20529;-74
2022/06/13 02:35:42;;;;;;;21.63;7.97;;;;;;;;;;5032962;28;20558;-74
2022/06/13 02:38:14;;;;;;;22.90;9.87;;;;;;;;;;5033900;28;20429;-74
2022/06/13 02:40:45;;;;;;;21.47;7.93;;;;;;;;;;5033432;28;20821;-74
2022/06/13 02:43:15;;;;;;;22.77;8.47;;;;;;;;;;5033151;28;20492;-75
2022/06/13 02:45:45;;;;;;;21.27;9.07;;;;;;;;;;5032832;28;20879;-75
2022/06/13 02:48:18;;;;;;;18.53;8.13;;;;;;;;;;5032936;28;20441;-74
2022/06/13 02:50:49;;;;;;;26.07;8.57;;;;;;;;;;5033006;28;20834;-74
2022/06/13 02:53:20;;;;;;;19.50;8.40;;;;;;;;;;5032868;28;20972;-74
2022/06/13 02:55:53;;;;;;;24.33;8.77;;;;;;;;;;5032759;28;20455;-74
2022/06/13 02:58:25;;;;;;;26.67;9.00;;;;;;;;;;5032753;28;20447;-74
2022/06/13 03:00:55;;;;;;;19.37;8.00;;;;;;;;;;5032393;28;20994;-74
2022/06/13 03:03:28;;;;;;;21.03;8.47;;;;;;;;;;5032715;28;20438;-74
2022/06/13 03:05:59;;;;;;;19.10;9.10;;;;;;;;;;5032656;28;20524;-74
2022/06/13 03:08:41;;;;;;;23.33;8.87;;;;;;;;;;5032768;28;20885;-74
2022/06/13 03:11:12;;;;;;;23.10;8.43;;;;;;;;;;5030581;28;20480;-74
2022/06/13 03:13:45;;;;;;;20.77;7.60;;;;;;;;;;5032494;28;20441;-74
2022/06/13 03:16:18;;;;;;;21.00;8.13;;;;;;;;;;5032486;28;20449;-75
2022/06/13 03:18:49;;;;;;;22.70;10.33;;;;;;;;;;5032422;28;20437;-75
2022/06/13 03:21:18;;;;;;;20.70;8.70;;;;;;;;;;5032338;28;20949;-74
2022/06/13 03:23:47;;;;;;;23.60;9.27;;;;;;;;;;5032315;28;20460;-74
2022/06/13 03:26:16;;;;;;;23.33;9.10;;;;;;;;;;5032158;28;21094;-74
2022/06/13 03:28:46;;;;;;;26.63;9.57;;;;;;;;;;5032421;28;20962;-74
2022/06/13 03:31:16;;;;;;;20.10;8.57;;;;;;;;;;5031994;28;20445;-74
2022/06/13 03:33:46;;;;;;;20.23;9.83;;;;;;;;;;5031984;28;20445;-74
2022/06/13 03:36:18;;;;;;;26.03;9.20;;;;;;;;;;5032043;28;20441;-74
2022/06/13 03:38:50;;;;;;;19.57;7.93;;;;;;;;;;5032052;28;20811;-74
2022/06/13 03:41:20;;;;;;;18.40;8.10;;;;;;;;;;5032367;28;20526;-74
2022/06/13 03:43:48;;;;;;;18.80;8.57;;;;;;;;;;5031879;28;20447;-74
2022/06/13 03:46:18;;;;;;;18.73;8.97;;;;;;;;;;5031803;28;20494;-74
2022/06/13 03:48:49;;;;;;;22.60;9.10;;;;;;;;;;5031867;28;20962;-74
2022/06/13 03:51:20;;;;;;;21.43;9.07;;;;;;;;;;5032266;28;20447;-75
2022/06/13 03:53:49;;;;;;;22.50;8.40;;;;;;;;;;5031608;28;20445;-75
2022/06/13 03:56:19;;;;;;;22.70;8.87;;;;;;;;;;5032055;28;20459;-75
2022/06/13 03:58:49;;;;;;;24.80;8.20;;;;;;;;;;5031979;28;20433;-74
2022/06/13 04:01:19;;;;;;;20.37;9.03;;;;;;;;;;5031616;28;20848;-75
2022/06/13 04:03:47;;;;;;;22.67;9.90;;;;;;;;;;5031117;28;20436;-74
2022/06/13 04:06:36;;;;;;;22.83;8.80;;;;;;;;;;5031597;28;20490;-74
2022/06/13 04:09:05;;;;;;;22.40;9.37;;;;;;;;;;5030531;28;20452;-75
2022/06/13 04:11:36;;;;;;;22.30;9.23;;;;;;;;;;5031246;28;20509;-74
2022/06/13 04:14:09;;;;;;;21.97;9.73;;;;;;;;;;5032003;28;20472;-74
2022/06/13 04:16:43;;;;;;;21.60;9.60;;;;;;;;;;5031694;28;20441;-74
2022/06/13 04:19:20;;;;;;;25.92;10.57;;;;;;;;;;5031428;28;20419;-73
2022/06/13 04:21:53;;;;;;;23.95;10.20;;;;;;;;;;5029427;28;20425;-74
2022/06/13 04:24:24;;;;;;;23.33;7.80;;;;;;;;;;5028396;28;20874;-74
2022/06/13 04:26:54;;;;;;;22.17;7.65;;;;;;;;;;5028895;28;20445;-70
2022/06/13 04:29:27;;;;;;;18.03;7.30;;;;;;;;;;5029597;28;20198;-70
2022/06/13 04:31:56;;;;;;;18.20;6.00;;;;;;;;;;5029522;28;20444;-70
2022/06/13 04:34:25;;;;;;;17.67;6.20;;;;;;;;;;5029495;28;20454;-70
2022/06/13 04:36:54;;;;;;;16.63;6.43;;;;;;;;;;5029481;28;20450;-70
2022/06/13 04:39:25;;;;;;;16.33;5.60;;;;;;;;;;5039163;28;20441;-70
2022/06/13 04:41:53;;;;;;;16.57;6.00;;;;;;;;;;5041129;28;20457;-70
2022/06/13 04:44:22;;;;;;;15.30;6.20;;;;;;;;;;5039964;28;20434;-70
2022/06/13 04:46:52;;;;;;;19.17;6.30;;;;;;;;;;5033396;28;20440;-70
2022/06/13 04:49:24;;;;;;;18.87;6.20;;;;;;;;;;5033719;28;20450;-72
2022/06/13 04:51:52;;;;;;;21.07;8.00;;;;;;;;;;5040852;28;20547;-70
2022/06/13 04:54:24;;;;;;;20.13;7.50;;;;;;;;;;5061980;28;20479;-70
2022/06/13 04:56:53;;;;;;;18.33;6.93;;;;;;;;;;5034326;28;20437;-70
2022/06/13 04:59:20;;;;;;;20.07;7.83;;;;;;;;;;5034118;28;20441;-70
2022/06/13 05:01:48;;;;;;;25.43;8.73;;;;;;;;;;5034565;28;20836;-70
2022/06/13 05:04:17;;;;;;;23.87;8.50;;;;;;;;;;5031710;28;20825;-70
2022/06/13 05:06:46;;;;;;;16.60;7.90;;;;;;;;;;5032729;28;20490;-69
2022/06/13 05:09:16;;;;;;;17.37;7.40;;;;;;;;;;5032544;28;20437;-70
2022/06/13 05:11:47;;;;;;;19.87;7.23;;;;;;;;;;5032586;28;20492;-70
2022/06/13 05:14:16;;;;;;;20.40;7.70;;;;;;;;;;5032617;28;20444;-70
2022/06/13 05:16:51;;;;;;;19.97;8.30;;;;;;;;;;5032517;28;20450;-70
2022/06/13 05:19:36;;;;;;;18.13;7.37;;;;;;;;;;5034148;28;20440;-69
2022/06/13 05:22:09;;;;;;;19.00;7.23;;;;;;;;;;5034810;28;20447;-69
2022/06/13 05:24:51;;;;;;;22.73;7.53;;;;;;;;;;5034528;28;20440;-70
2022/06/13 05:27:20;;;;;;;21.40;9.80;;;;;;;;;;5032569;28;20519;-70
2022/06/13 05:29:47;;;;;;;20.80;8.43;;;;;;;;;;5034233;28;20459;-69
2022/06/13 05:32:15;;;;;;;18.60;8.40;;;;;;;;;;5034473;28;20820;-70
2022/06/13 05:34:45;;;;;;;16.90;7.90;;;;;;;;;;5034362;28;20952;-69
2022/06/13 05:37:14;;;;;;;25.50;8.97;;;;;;;;;;5034862;28;20435;-70
2022/06/13 05:39:41;;;;;;;32.10;9.20;;;;;;;;;;5034098;28;20445;-70
2022/06/13 05:42:09;;;;;;;24.67;9.97;;;;;;;;;;5034506;28;20546;-70
2022/06/13 05:44:38;;;;;;;18.80;9.80;;;;;;;;;;5034333;28;20437;-70
2022/06/13 05:47:06;;;;;;;20.57;9.60;;;;;;;;;;5034066;28;20476;-70
2022/06/13 05:49:34;;;;;;;18.70;8.90;;;;;;;;;;5033856;28;20938;-70
2022/06/13 05:52:01;;;;;;;21.93;8.93;;;;;;;;;;5034263;28;20444;-70
2022/06/13 05:54:29;;;;;;;18.33;8.13;;;;;;;;;;5033685;28;20495;-70
2022/06/13 05:56:57;;;;;;;20.80;8.97;;;;;;;;;;5034024;28;20975;-70
2022/06/13 05:59:24;;;;;;;28.93;8.90;;;;;;;;;;5034060;28;20965;-70
2022/06/13 06:01:53;;;;;;;17.97;8.20;;;;;;;;;;5033710;28;20463;-70
2022/06/13 06:04:20;;;;;;;16.50;7.20;;;;;;;;;;5033792;28;20441;-70
2022/06/13 06:06:48;;;;;;;22.87;7.93;;;;;;;;;;5033826;28;20524;-70
2022/06/13 06:09:17;;;;;;;16.60;6.53;;;;;;;;;;5033645;28;20443;-70
2022/06/13 06:11:45;;;;;;;20.10;7.10;;;;;;;;;;5033365;28;20479;-71
2022/06/13 06:14:13;;;;;;;21.03;6.67;;;;;;;;;;5033598;28;20494;-70
2022/06/13 06:16:40;;;;;;;22.73;6.90;;;;;;;;;;5033548;28;20817;-70
2022/06/13 06:19:09;;;;;;;18.50;6.70;;;;;;;;;;5033610;28;20440;-70
2022/06/13 06:21:37;;;;;;;16.30;6.93;;;;;;;;;;5033564;28;20452;-70
2022/06/13 06:24:04;;;;;;;16.67;6.80;;;;;;;;;;5033535;28;20440;-70
2022/06/13 06:26:32;;;;;;;21.97;8.17;;;;;;;;;;5033395;28;21008;-70
2022/06/13 06:29:00;;;;;;;21.73;7.93;;;;;;;;;;5033267;28;20448;-70
2022/06/13 06:31:27;;;;;;;26.63;7.80;;;;;;;;;;5033721;28;20436;-70
2022/06/13 06:33:55;;;;;;;20.60;8.33;;;;;;;;;;5033044;28;20441;-70
2022/06/13 06:36:23;;;;;;;21.57;8.57;;;;;;;;;;5033400;28;20440;-70
2022/06/13 06:38:51;;;;;;;20.47;10.17;;;;;;;;;;5033229;28;20525;-69
2022/06/13 06:41:18;;;;;;;24.20;8.50;;;;;;;;;;5033094;28;20460;-70
2022/06/13 06:43:46;;;;;;;21.30;9.90;;;;;;;;;;5032729;28;20442;-69
2022/06/13 06:46:14;;;;;;;21.83;9.43;;;;;;;;;;5033125;28;20488;-70
2022/06/13 06:48:42;;;;;;;24.40;10.53;;;;;;;;;;5033085;28;20443;-70
2022/06/13 06:51:10;;;;;;;23.30;10.23;;;;;;;;;;5033121;28;20443;-70
2022/06/13 07:01:55;;;;;;;29.93;10.70;;;;;;;;;;5051963;28;20857;-70
2022/06/13 07:04:23;;;;;;;21.50;10.33;;;;;;;;;;5052358;28;20442;-70
2022/06/13 07:06:50;;;;;;;25.73;9.20;;;;;;;;;;5051746;28;20483;-70
2022/06/13 07:09:19;;;;;;;22.13;9.40;;;;;;;;;;5052429;28;20448;-70
2022/06/13 07:11:56;;;;;;;29.23;10.00;;;;;;;;;;5052418;28;20470;-71
2022/06/13 07:14:24;;;;;;;22.17;10.53;;;;;;;;;;5052693;28;20443;-70
2022/06/13 07:16:52;;;;;;;21.10;8.20;;;;;;;;;;5052340;28;20441;-70
2022/06/13 07:19:19;;;;;;;23.73;9.30;;;;;;;;;;5052345;28;20438;-70
2022/06/13 07:21:46;;;;;;;21.07;8.60;;;;;;;;;;5052297;28;20432;-70
2022/06/13 07:24:14;;;;;;;20.47;9.20;;;;;;;;;;5052307;28;20959;-70
2022/06/13 07:26:43;;;;;;;18.07;9.00;;;;;;;;;;5052189;28;20490;-70
2022/06/13 07:29:11;;;;;;;20.10;8.50;;;;;;;;;;5052199;28;20505;-70
2022/06/13 07:31:40;;;;;;;21.23;8.77;;;;;;;;;;5051909;28;20953;-70
2022/06/13 07:34:08;;;;;;;21.00;8.30;;;;;;;;;;5052297;28;20453;-70
2022/06/13 07:36:36;;;;;;;21.70;10.00;;;;;;;;;;5052264;28;20986;-70
2022/06/13 07:39:04;;;;;;;31.50;9.37;;;;;;;;;;5052023;28;20445;-70
2022/06/13 07:41:31;;;;;;;21.53;9.03;;;;;;;;;;5051732;28;20963;-70
2022/06/13 07:44:00;;;;;;;19.87;8.67;;;;;;;;;;5052115;28;20444;-70
2022/06/13 07:46:29;;;;;;;18.17;8.30;;;;;;;;;;5051830;28;20497;-70
2022/06/13 07:48:57;;;;;;;21.70;7.90;;;;;;;;;;5052161;28;20451;-70
2022/06/13 07:51:25;;;;;;;25.17;9.73;;;;;;;;;;5051893;28;20473;-70
2022/06/13 07:53:53;;;;;;;22.77;9.60;;;;;;;;;;5051725;28;20442;-70
2022/06/13 07:56:22;;;;;;;24.50;8.90;;;;;;;;;;5051710;28;20450;-70
2022/06/13 07:58:50;;;;;;;19.77;8.50;;;;;;;;;;5052040;28;20445;-70
2022/06/13 08:01:20;;;;;;;20.90;9.63;;;;;;;;;;5051384;28;20455;-70
2022/06/13 08:03:47;;;;;;;20.10;9.00;;;;;;;;;;5051620;28;20450;-70
2022/06/13 08:06:16;;;;;;;22.13;9.20;;;;;;;;;;5051552;28;21110;-70
2022/06/13 08:08:45;;;;;;;20.00;8.50;;;;;;;;;;5051733;28;20447;-70
2022/06/13 08:11:13;;;;;;;19.47;8.33;;;;;;;;;;5051775;28;20539;-70
2022/06/13 08:13:41;;;;;;;22.10;9.90;;;;;;;;;;5051397;28;20446;-70
2022/06/13 08:16:09;;;;;;;19.90;7.93;;;;;;;;;;5051585;28;20530;-70
2022/06/13 08:18:38;;;;;;;18.60;7.93;;;;;;;;;;5055784;28;20443;-70
2022/06/13 08:21:06;;;;;;;18.40;7.03;;;;;;;;;;5055818;28;20436;-70
2022/06/13 08:23:34;;;;;;;18.80;8.47;;;;;;;;;;5055335;28;20455;-70
2022/06/13 08:26:01;;;;;;;22.67;7.43;;;;;;;;;;5055811;28;20912;-71
2022/06/13 08:28:29;;;;;;;18.87;8.20;;;;;;;;;;5055948;28;20440;-70
2022/06/13 08:30:58;;;;;;;21.83;7.50;;;;;;;;;;5055657;28;20434;-70
2022/06/13 08:33:26;;;;;;;18.50;7.60;;;;;;;;;;5055477;28;20435;-70
2022/06/13 08:35:55;;;;;;;18.20;7.10;;;;;;;;;;5055200;28;20455;-70
2022/06/13 08:38:24;;;;;;;19.90;8.53;;;;;;;;;;5055470;28;20443;-70
2022/06/13 08:40:58;;;;;;;20.97;8.53;;;;;;;;;;5055522;28;20473;-70
2022/06/13 08:43:36;;;;;;;18.17;7.40;;;;;;;;;;5055589;28;20438;-70
2022/06/13 08:46:09;;;;;;;23.03;7.03;;;;;;;;;;5055203;28;20490;-70
2022/06/13 08:48:40;;;;;;;21.33;8.50;;;;;;;;;;5055243;28;20439;-70
2022/06/13 08:51:10;;;;;;;21.23;7.57;;;;;;;;;;5055601;28;20435;-70
2022/06/13 08:53:42;;;;;;;26.03;8.10;;;;;;;;;;5054877;28;20455;-70
2022/06/13 08:56:13;;;;;;;19.93;7.90;;;;;;;;;;5055379;28;20550;-70
2022/06/13 08:58:43;;;;;;;18.33;6.63;;;;;;;;;;5054913;28;20530;-70
2022/06/13 09:01:12;;;;;;;16.17;6.50;;;;;;;;;;5054502;28;20832;-70
2022/06/13 09:03:42;;;;;;;25.77;8.17;;;;;;;;;;5054632;28;20434;-70
2022/06/13 09:06:15;;;;;;;20.47;7.27;;;;;;;;;;5054891;28;20487;-70
2022/06/13 09:08:45;;;;;;;17.67;7.10;;;;;;;;;;5054873;28;20437;-70
2022/06/13 09:11:17;;;;;;;16.90;6.57;;;;;;;;;;5054969;28;20488;-70
2022/06/13 09:13:47;;;;;;;19.70;7.97;;;;;;;;;;5054504;28;20808;-70
2022/06/13 09:16:17;;;;;;;18.70;6.53;;;;;;;;;;5055171;28;20530;-70
2022/06/13 09:18:48;;;;;;;18.27;6.70;;;;;;;;;;5055256;28;20443;-70
2022/06/13 09:21:22;;;;;;;17.03;6.10;;;;;;;;;;5055018;28;20517;-70
2022/06/13 09:23:52;;;;;;;19.03;6.57;;;;;;;;;;5054455;28;20450;-70
2022/06/13 09:26:22;;;;;;;17.77;6.13;;;;;;;;;;5054585;28;20882;-70
2022/06/13 09:28:54;;;;;;;17.00;6.47;;;;;;;;;;5053653;28;20443;-70
2022/06/13 09:31:26;;;;;;;19.80;6.30;;;;;;;;;;5054728;28;20447;-71
2022/06/13 09:33:55;;;;;;;18.10;6.20;;;;;;;;;;5054323;28;20440;-70
2022/06/13 09:36:28;;;;;;;29.87;6.43;;;;;;;;;;5054324;28;20450;-70
2022/06/13 09:38:59;;;;;;;16.60;6.10;;;;;;;;;;5054296;28;20451;-70
2022/06/13 09:41:33;;;;;;;17.87;6.13;;;;;;;;;;5054559;28;20450;-70
2022/06/13 09:44:06;;;;;;;16.23;6.50;;;;;;;;;;5054620;28;20541;-70
2022/06/13 09:46:37;;;;;;;19.03;6.20;;;;;;;;;;5054326;28;20529;-71
2022/06/13 09:49:09;;;;;;;20.53;7.20;;;;;;;;;;5054065;28;20438;-70
2022/06/13 09:51:45;;;;;;;19.27;7.03;;;;;;;;;;5054147;28;20447;-70
2022/06/13 09:54:16;;;;;;;17.30;6.50;;;;;;;;;;5054011;28;20964;-70
2022/06/13 09:56:49;;;;;;;26.13;9.20;;;;;;;;;;5054167;28;20459;-70
2022/06/13 09:59:23;;;;;;;18.17;6.87;;;;;;;;;;5053779;28;20446;-70
2022/06/13 10:04:58;;;;;;;19.13;7.03;;;;;;;;;;5053856;28;20778;-71
2022/06/13 10:07:33;;;;;;;17.60;6.50;;;;;;;;;;5053870;28;20471;-70
2022/06/13 10:10:03;;;;;;;17.60;7.17;;;;;;;;;;5053795;28;20446;-70
2022/06/13 10:12:35;;;;;;;45.43;7.83;;;;;;;;;;5053986;28;20796;-70
2022/06/13 10:15:15;;;;;;;16.20;5.93;;;;;;;;;;5053684;28;20945;-70
2022/06/13 10:17:53;;;;;;;17.37;6.60;;;;;;;;;;5053410;28;20454;-70
2022/06/13 10:20:24;;;;;;;16.50;5.90;;;;;;;;;;5053683;28;20447;-70
2022/06/13 10:22:57;;;;;;;21.20;6.17;;;;;;;;;;5054117;28;20440;-70
2022/06/13 10:25:34;;;;;;;18.17;6.40;;;;;;;;;;5053659;28;20440;-70
2022/06/13 10:28:09;;;;;;;16.00;5.80;;;;;;;;;;5053296;28;20483;-71
2022/06/13 10:30:42;;;;;;;16.00;5.70;;;;;;;;;;5053228;28;20439;-70
2022/06/13 10:33:18;;;;;;;22.50;6.83;;;;;;;;;;5053546;28;20443;-70
2022/06/13 10:35:49;;;;;;;18.63;6.70;;;;;;;;;;5053228;28;20473;-70
2022/06/13 10:38:37;;;;;;;18.07;6.30;;;;;;;;;;5053218;28;20447;-70
2022/06/13 10:41:05;;;;;;;18.53;6.90;;;;;;;;;;5051993;28;20443;-70
2022/06/13 10:43:34;;;;;;;19.47;7.20;;;;;;;;;;5052782;28;20450;-71
2022/06/13 10:46:01;;;;;;;19.70;7.00;;;;;;;;;;5053157;28;20440;-70
2022/06/13 10:48:31;;;;;;;18.07;6.83;;;;;;;;;;5052849;28;20479;-70
2022/06/13 10:50:59;;;;;;;19.40;8.10;;;;;;;;;;5046955;28;20459;-70
2022/06/13 10:53:28;;;;;;;24.87;7.50;;;;;;;;;;5034981;28;20868;-70
2022/06/13 10:56:00;;;;;;;19.47;7.87;;;;;;;;;;5053048;28;20442;-70
2022/06/13 10:58:30;;;;;;;23.07;8.17;;;;;;;;;;5053203;28;20451;-70
2022/06/13 11:01:07;;;;;;;20.33;7.53;;;;;;;;;;5052481;28;20494;-71
2022/06/13 11:03:34;;;;;;;19.63;7.43;;;;;;;;;;5052538;28;20516;-70
2022/06/13 11:06:03;;;;;;;24.73;8.43;;;;;;;;;;5052982;28;20443;-70
2022/06/13 11:08:32;;;;;;;23.33;8.87;;;;;;;;;;5052457;28;20475;-70
2022/06/13 11:11:02;;;;;;;21.43;8.80;;;;;;;;;;5052545;28;20497;-70
2022/06/13 11:13:32;;;;;;;22.07;7.73;;;;;;;;;;5052519;28;20450;-70
2022/06/13 11:24:23;;;;;;;20.70;7.97;;;;;;;;;;5052443;28;20515;-70
2022/06/13 11:29:39;;;;;;;19.23;7.63;;;;;;;;;;5052249;28;20481;-70
2022/06/13 11:32:08;;;;;;;20.73;8.57;;;;;;;;;;5052051;28;20976;-70
2022/06/13 11:34:38;;;;;;;21.13;8.00;;;;;;;;;;5052065;28;20509;-71
2022/06/13 11:37:06;;;;;;;19.93;8.17;;;;;;;;;;5052066;28;20847;-70
2022/06/13 11:39:35;;;;;;;27.40;9.40;;;;;;;;;;5051766;28;20435;-70
2022/06/13 11:42:04;;;;;;;19.50;8.27;;;;;;;;;;5050274;28;20450;-70
2022/06/13 11:44:33;;;;;;;18.97;8.10;;;;;;;;;;5032156;28;20437;-70
2022/06/13 11:47:01;;;;;;;28.17;7.47;;;;;;;;;;5031902;28;21017;-71
2022/06/13 11:49:35;;;;;;;21.40;8.23;;;;;;;;;;5032099;28;20445;-71
2022/06/13 11:52:05;;;;;;;21.80;7.57;;;;;;;;;;5031883;28;20437;-70
2022/06/13 11:54:34;;;;;;;19.10;7.70;;;;;;;;;;5031981;28;21020;-70
2022/06/13 11:57:25;;;;;;;19.20;7.53;;;;;;;;;;5031827;28;20455;-70
2022/06/13 11:59:55;;;;;;;17.63;6.90;;;;;;;;;;5021378;28;20455;-70
2022/06/13 12:02:23;;;;;;;20.87;8.10;;;;;;;;;;5031395;28;20495;-70
2022/06/13 12:04:55;;;;;;;18.73;7.50;;;;;;;;;;5031727;28;20459;-70
2022/06/13 12:07:24;;;;;;;26.37;8.03;;;;;;;;;;5032052;28;20484;-70
2022/06/13 12:09:54;;;;;;;19.40;8.23;;;;;;;;;;5031732;28;20459;-71
2022/06/13 12:12:24;;;;;;;23.20;8.60;;;;;;;;;;5031733;28;20988;-70
2022/06/13 12:14:51;;;;;;;18.57;7.17;;;;;;;;;;5031542;28;20459;-70
2022/06/13 12:17:23;;;;;;;22.43;7.67;;;;;;;;;;5031942;28;20455;-70
2022/06/13 12:19:53;;;;;;;21.70;8.20;;;;;;;;;;5031577;28;20771;-70
2022/06/13 12:22:22;;;;;;;23.43;7.93;;;;;;;;;;5031660;28;20454;-70
2022/06/13 12:24:56;;;;;;;24.67;8.93;;;;;;;;;;5031612;28;20433;-70
2022/06/13 12:27:32;;;;;;;20.10;8.10;;;;;;;;;;5031488;28;20483;-70
2022/06/13 12:30:13;;;;;;;18.80;7.90;;;;;;;;;;5031994;28;20448;-70
2022/06/13 12:32:45;;;;;;;18.27;8.13;;;;;;;;;;5031543;28;20444;-70
2022/06/13 12:35:19;;;;;;;19.30;7.60;;;;;;;;;;5031596;28;20451;-70
2022/06/13 12:37:53;;;;;;;23.00;8.43;;;;;;;;;;5031226;28;20456;-70
2022/06/13 12:40:30;;;;;;;19.50;7.47;;;;;;;;;;5032241;28;20443;-70
2022/06/13 12:43:08;;;;;;;20.43;8.13;;;;;;;;;;5031593;28;20912;-70
2022/06/13 12:45:44;;;;;;;19.87;7.43;;;;;;;;;;5031631;28;20449;-71
2022/06/13 12:48:18;;;;;;;26.80;7.60;;;;;;;;;;5031286;28;20859;-70
2022/06/13 12:50:53;;;;;;;18.77;6.93;;;;;;;;;;5031725;28;20801;-70
2022/06/13 12:53:29;;;;;;;18.80;8.43;;;;;;;;;;5031745;28;20512;-70
2022/06/13 12:56:03;;;;;;;18.27;7.83;;;;;;;;;;5031397;28;20479;-70
2022/06/13 12:58:40;;;;;;;17.17;6.83;;;;;;;;;;5031384;28;20463;-70
2022/06/13 13:01:12;;;;;;;21.03;8.30;;;;;;;;;;5031496;28;20456;-70
2022/06/13 13:03:55;;;;;;;21.57;7.90;;;;;;;;;;5032224;28;20451;-71
2022/06/13 13:06:31;;;;;;;23.37;7.90;;;;;;;;;;5035178;28;20498;-70
2022/06/13 13:09:02;;;;;;;20.23;8.80;;;;;;;;;;5034903;28;20857;-70
2022/06/13 13:11:39;;;;;;;20.77;8.50;;;;;;;;;;5035221;28;20483;-70
2022/06/13 13:14:13;;;;;;;20.27;9.07;;;;;;;;;;5034778;28;20444;-71
2022/06/13 13:16:44;;;;;;;18.97;7.50;;;;;;;;;;5035094;28;20454;-70
2022/06/13 13:19:29;;;;;;;17.50;7.30;;;;;;;;;;5034668;28;20456;-70
2022/06/13 13:22:02;;;;;;;18.10;7.30;;;;;;;;;;5028093;28;20539;-70
2022/06/13 13:24:40;;;;;;;21.73;8.73;;;;;;;;;;5034582;28;20441;-70
2022/06/13 13:27:09;;;;;;;19.73;8.30;;;;;;;;;;5035055;28;20514;-70
2022/06/13 13:29:42;;;;;;;21.07;8.73;;;;;;;;;;5034330;28;20956;-71
2022/06/13 13:32:15;;;;;;;21.17;7.83;;;;;;;;;;5034524;28;20452;-70
2022/06/13 13:34:49;;;;;;;18.40;7.87;;;;;;;;;;5034894;28;20432;-70
2022/06/13 13:37:23;;;;;;;21.87;7.57;;;;;;;;;;5034388;28;20980;-71
2022/06/13 13:39:54;;;;;;;19.43;7.93;;;;;;;;;;5034226;28;20479;-70
2022/06/13 13:42:25;;;;;;;21.20;7.57;;;;;;;;;;5034259;28;20445;-71
2022/06/13 13:44:56;;;;;;;18.47;7.90;;;;;;;;;;5034378;28;20452;-71
2022/06/13 13:47:24;;;;;;;20.10;8.17;;;;;;;;;;5034210;28;20455;-71
2022/06/13 13:49:54;;;;;;;21.10;9.00;;;;;;;;;;5034058;28;20441;-71
2022/06/13 13:52:25;;;;;;;21.20;7.17;;;;;;;;;;5034095;28;20441;-71
2022/06/13 13:54:54;;;;;;;17.70;7.40;;;;;;;;;;5034005;28;20444;-72
2022/06/13 13:57:25;;;;;;;19.63;7.10;;;;;;;;;;5034209;28;20449;-71
2022/06/13 13:59:54;;;;;;;16.70;6.93;;;;;;;;;;5034109;28;20442;-71
2022/06/13 14:02:28;;;;;;;23.80;8.00;;;;;;;;;;5033486;28;21032;-71
2022/06/13 14:05:02;;;;;;;20.80;7.47;;;;;;;;;;5043005;28;20459;-70
2022/06/13 14:07:53;;;;;;;19.97;7.83;;;;;;;;;;5053768;28;20446;-71
2022/06/13 14:10:24;;;;;;;21.17;7.83;;;;;;;;;;5037890;28;20832;-71
2022/06/13 14:13:07;;;;;;;17.93;7.20;;;;;;;;;;5033780;28;20445;-71
2022/06/13 14:15:37;;;;;;;19.80;8.10;;;;;;;;;;5033195;28;20436;-71
2022/06/13 14:18:07;;;;;;;19.90;7.67;;;;;;;;;;5034132;28;20445;-71
2022/06/13 14:20:35;;;;;;;23.63;8.90;;;;;;;;;;5034022;28;20445;-71
2022/06/13 14:23:04;;;;;;;22.63;9.63;;;;;;;;;;5033883;28;20458;-71
2022/06/13 14:25:41;;;;;;;19.43;7.07;;;;;;;;;;5033569;28;20465;-71
2022/06/13 14:28:10;;;;;;;23.20;8.33;;;;;;;;;;5033145;28;20483;-71
2022/06/13 14:36:09;;;;;;;16.50;6.83;;;;;;;;;;5058364;28;21025;-72
2022/06/13 14:38:40;;;;;;;18.47;7.47;;;;;;;;;;5052537;28;21035;-72
2022/06/13 14:41:13;;;;;;;17.50;7.80;;;;;;;;;;5064793;28;20481;-72
2022/06/13 14:44:01;;;;;;;20.10;8.60;;;;;;;;;;5061987;28;20474;-73
2022/06/13 14:46:39;;;;;;;19.70;7.10;;;;;;;;;;5044424;28;20861;-74
2022/06/13 14:49:11;;;;;;;21.93;8.10;;;;;;;;;;5044209;28;20503;-72
2022/06/13 14:51:53;;;;;;;18.67;7.37;;;;;;;;;;5049002;28;21033;-72
2022/06/13 14:54:39;;;;;;;19.17;8.13;;;;;;;;;;5057341;28;20477;-72
2022/06/13 14:57:21;;;;;;;22.13;8.70;;;;;;;;;;5036900;28;20993;-73
2022/06/13 15:00:07;;;;;;;22.43;7.87;;;;;;;;;;5045108;28;20478;-72
2022/06/13 15:02:56;;;;;;;21.50;7.03;;;;;;;;;;5046680;28;20467;-72
2022/06/13 15:05:41;;;;;;;21.07;8.43;;;;;;;;;;5048041;28;20550;-72
2022/06/13 15:08:12;;;;;;;20.10;7.13;;;;;;;;;;5064302;28;20522;-72
2022/06/13 15:10:45;;;;;;;18.97;7.60;;;;;;;;;;5060935;28;20478;-70
2022/06/13 15:13:14;;;;;;;17.67;7.63;;;;;;;;;;5058757;28;20556;-70
2022/06/13 15:15:41;;;;;;;21.33;8.03;;;;;;;;;;5059246;28;20485;-70
2022/06/13 15:18:10;;;;;;;20.27;8.43;;;;;;;;;;5063078;28;20867;-71
2022/06/13 15:20:45;;;;;;;20.87;8.20;;;;;;;;;;5064367;28;20475;-71